Terminal Aerodrome Forecast
Issued by NWS

Current Version | Previous Version | Text Only | Print | Product List | Glossary On
Versions: 1 2 3 4 5 6 7 8 9 10 11 12 13 14 15 16 17 18
000 FTUS41 KBTV 132338 TAFMPV TAF KMPV 132338Z 1400/1424 30010G20KT P6SM VCSH OVC030 TEMPO 1400/1404 3SM -SN BR BKN020 FM140400 27009KT P6SM BKN030 FM140800 26005KT P6SM SCT120 FM141600 31009KT P6SM FEW250=

USA.gov is the U.S. government's official web portal to all federal, state and local government web resources and services.